Time;durP1;ratioP1;P1;durP2;ratioP2;P2;SDS_P1;SDS_P2;PMS_P1;PMS_P2;Temp;Humidity;BMP_temperature;BMP_pressure;BME280_temperature;BME280_humidity;BME280_pressure;Samples;Min_cycle;Max_cycle;Signal;HPM_P1;HPM_P2
2022/07/02 00:01:59;;;;;;;6.68;3.83;;;13.10;99.90;;;;;;5067363;28;20060;-45
2022/07/02 00:04:28;;;;;;;9.30;4.00;;;13.10;99.90;;;;;;5072775;28;20461;-45
2022/07/02 00:06:53;;;;;;;5.40;3.65;;;13.10;99.90;;;;;;5049827;28;20044;-44
2022/07/02 00:09:19;;;;;;;8.18;3.45;;;13.10;99.90;;;;;;5057692;28;20098;-44
2022/07/02 00:11:47;;;;;;;6.72;3.20;;;13.10;99.90;;;;;;5049249;28;20048;-45
2022/07/02 00:14:15;;;;;;;5.25;3.03;;;13.00;99.90;;;;;;5058546;28;20049;-44
2022/07/02 00:16:45;;;;;;;7.63;3.33;;;13.00;99.90;;;;;;5050810;28;20048;-44
2022/07/02 00:19:13;;;;;;;8.18;3.25;;;13.00;99.90;;;;;;5060546;28;20640;-45
2022/07/02 00:21:39;;;;;;;7.18;3.30;;;13.00;99.90;;;;;;5072723;28;20067;-45
2022/07/02 00:24:09;;;;;;;8.52;3.50;;;12.90;99.90;;;;;;5077158;28;20109;-43
2022/07/02 00:26:39;;;;;;;7.25;2.95;;;12.90;99.90;;;;;;5061207;28;20056;-44
2022/07/02 00:29:25;;;;;;;5.35;3.38;;;12.90;99.90;;;;;;5082571;28;20052;-44
2022/07/02 00:31:53;;;;;;;6.65;3.28;;;12.90;99.90;;;;;;5087514;28;20170;-44
2022/07/02 00:34:24;;;;;;;9.35;3.88;;;12.90;99.90;;;;;;5083686;28;20121;-44
2022/07/02 00:36:50;;;;;;;8.10;3.70;;;12.90;99.90;;;;;;5075490;28;20135;-44
2022/07/02 00:39:16;;;;;;;7.38;3.60;;;12.80;99.90;;;;;;5083620;28;20136;-43
2022/07/02 00:41:47;;;;;;;6.22;3.58;;;12.80;99.90;;;;;;5091983;28;20048;-43
2022/07/02 00:44:14;;;;;;;7.32;4.13;;;12.80;99.90;;;;;;5082325;28;20104;-45
2022/07/02 00:46:40;;;;;;;6.60;4.50;;;12.70;99.90;;;;;;5085378;28;20565;-44
2022/07/02 00:49:08;;;;;;;8.50;3.95;;;12.80;99.90;;;;;;5083575;28;20055;-44
2022/07/02 00:51:34;;;;;;;5.88;4.05;;;12.70;99.90;;;;;;5079623;28;20044;-44
2022/07/02 00:54:01;;;;;;;7.50;4.57;;;12.70;99.90;;;;;;5089395;28;20510;-44
2022/07/02 00:56:27;;;;;;;8.10;5.38;;;12.80;99.90;;;;;;5070215;28;20067;-45
2022/07/02 00:58:53;;;;;;;8.90;5.15;;;12.70;99.90;;;;;;5091956;28;20166;-43
2022/07/02 01:01:19;;;;;;;6.20;4.70;;;12.70;99.90;;;;;;5063419;28;20443;-44
2022/07/02 01:03:47;;;;;;;8.00;4.93;;;12.70;99.90;;;;;;5091441;28;20050;-43
2022/07/02 01:06:15;;;;;;;7.18;4.97;;;12.70;99.90;;;;;;5097990;28;20408;-45
2022/07/02 01:11:28;;;;;;;9.80;5.18;;;12.70;99.90;;;;;;5092696;28;20372;-44
2022/07/02 01:13:54;;;;;;;7.93;5.65;;;12.60;99.90;;;;;;5096192;28;20059;-45
2022/07/02 01:16:20;;;;;;;7.88;6.32;;;12.60;99.90;;;;;;5094343;28;20049;-44
2022/07/02 01:18:46;;;;;;;7.65;5.15;;;12.60;99.90;;;;;;5089785;28;20047;-44
2022/07/02 01:21:12;;;;;;;8.95;5.70;;;12.50;99.90;;;;;;5058988;28;20056;-45
2022/07/02 01:23:37;;;;;;;9.88;5.82;;;12.50;99.90;;;;;;5062276;28;20054;-43
2022/07/02 01:26:03;;;;;;;13.20;6.90;;;12.50;99.90;;;;;;5051459;28;20056;-44
2022/07/02 01:28:29;;;;;;;7.97;5.25;;;12.50;99.90;;;;;;5079227;28;20051;-43
2022/07/02 01:30:58;;;;;;;10.20;5.90;;;12.50;99.90;;;;;;5072426;28;20064;-44
2022/07/02 01:33:24;;;;;;;9.38;6.18;;;12.50;99.90;;;;;;5061344;28;20623;-44
2022/07/02 01:35:49;;;;;;;9.07;5.38;;;12.40;99.90;;;;;;5062069;28;20056;-44
2022/07/02 01:38:15;;;;;;;8.95;6.05;;;12.40;99.90;;;;;;5047910;28;20490;-45
2022/07/02 01:40:41;;;;;;;9.90;5.35;;;12.40;99.90;;;;;;5072282;28;20486;-43
2022/07/02 01:43:07;;;;;;;13.27;5.72;;;12.40;99.90;;;;;;5066468;28;20554;-43
2022/07/02 01:45:33;;;;;;;8.85;5.80;;;12.40;99.90;;;;;;5076784;28;20139;-45
2022/07/02 01:47:58;;;;;;;14.93;6.57;;;12.40;99.90;;;;;;5069091;28;20558;-44
2022/07/02 01:50:24;;;;;;;7.80;6.75;;;12.40;99.90;;;;;;5065602;28;20050;-44
2022/07/02 01:52:51;;;;;;;6.82;6.05;;;12.40;99.90;;;;;;5049244;28;20577;-43
2022/07/02 01:55:17;;;;;;;11.75;6.78;;;12.40;99.90;;;;;;5067264;28;20056;-44
2022/07/02 01:57:43;;;;;;;10.63;6.13;;;12.40;99.90;;;;;;5067322;28;20502;-44
2022/07/02 02:00:11;;;;;;;10.85;7.18;;;12.40;99.90;;;;;;5066859;28;20058;-43
2022/07/02 02:02:38;;;;;;;12.65;7.30;;;12.40;99.90;;;;;;5066321;28;20383;-43
2022/07/02 02:05:04;;;;;;;11.07;7.95;;;12.40;99.90;;;;;;5065937;28;20056;-44
2022/07/02 02:07:32;;;;;;;11.65;7.32;;;12.40;99.90;;;;;;5047761;28;20055;-42
2022/07/02 02:09:58;;;;;;;12.07;7.63;;;12.40;99.90;;;;;;5061938;28;20197;-44
2022/07/02 02:12:24;;;;;;;11.55;9.05;;;12.40;99.90;;;;;;5053355;28;20442;-45
2022/07/02 02:14:50;;;;;;;13.63;8.73;;;12.40;99.90;;;;;;5073479;28;20080;-44
2022/07/02 02:17:16;;;;;;;16.45;9.65;;;12.40;99.90;;;;;;5062762;28;20053;-46
2022/07/02 02:19:42;;;;;;;15.65;9.52;;;12.40;99.90;;;;;;5073571;28;20101;-44
2022/07/02 02:22:07;;;;;;;11.75;9.10;;;12.50;99.90;;;;;;5082236;28;20047;-44
2022/07/02 02:24:33;;;;;;;14.77;10.15;;;12.40;99.90;;;;;;5086888;28;20048;-45
2022/07/02 02:26:59;;;;;;;18.73;11.43;;;12.50;99.90;;;;;;5087711;28;20047;-44
2022/07/02 02:29:25;;;;;;;17.48;11.13;;;12.50;99.90;;;;;;5088877;28;20070;-45
2022/07/02 02:31:51;;;;;;;17.30;12.18;;;12.50;99.90;;;;;;5088635;28;20052;-46
2022/07/02 02:34:16;;;;;;;19.20;12.02;;;12.50;99.90;;;;;;5102500;28;20129;-44
2022/07/02 02:36:42;;;;;;;18.42;12.60;;;12.50;99.90;;;;;;5103026;28;20446;-44
2022/07/02 02:39:08;;;;;;;16.38;12.02;;;12.40;99.90;;;;;;5103413;28;20443;-45
2022/07/02 02:41:34;;;;;;;19.40;11.98;;;12.40;99.90;;;;;;5102930;28;20368;-43
2022/07/02 02:43:59;;;;;;;18.42;12.43;;;12.40;99.90;;;;;;5103112;28;20170;-44
2022/07/02 02:46:25;;;;;;;18.25;12.13;;;12.40;99.90;;;;;;5090660;28;20044;-43
2022/07/02 02:48:51;;;;;;;12.45;9.90;;;12.40;99.90;;;;;;5081882;28;20409;-44
2022/07/02 02:51:18;;;;;;;16.33;10.80;;;12.40;99.90;;;;;;5080700;28;20048;-44
2022/07/02 02:53:45;;;;;;;12.63;10.27;;;12.40;99.90;;;;;;5081509;28;20043;-43
2022/07/02 02:56:11;;;;;;;11.90;9.90;;;12.40;99.90;;;;;;5083494;28;20071;-44
2022/07/02 02:58:37;;;;;;;16.60;9.65;;;12.40;99.90;;;;;;5083592;28;20568;-43
2022/07/02 03:01:04;;;;;;;15.93;10.82;;;12.40;99.90;;;;;;5081108;28;20099;-44
2022/07/02 03:03:30;;;;;;;15.18;10.23;;;12.40;99.90;;;;;;5066916;28;20051;-44
2022/07/02 03:05:55;;;;;;;11.85;9.73;;;12.30;99.90;;;;;;5088238;28;20043;-44
2022/07/02 03:08:21;;;;;;;15.40;9.75;;;12.30;99.90;;;;;;5080490;28;20039;-45
2022/07/02 03:10:48;;;;;;;15.63;10.35;;;12.30;99.90;;;;;;5082831;28;20109;-45
2022/07/02 03:13:16;;;;;;;12.07;9.75;;;12.30;99.90;;;;;;5077695;28;20088;-44
2022/07/02 03:15:42;;;;;;;13.68;9.10;;;12.30;99.90;;;;;;5092095;28;20051;-45
2022/07/02 03:18:08;;;;;;;14.13;8.85;;;12.30;99.90;;;;;;5086265;28;20044;-44
2022/07/02 03:20:35;;;;;;;17.27;9.70;;;12.30;99.90;;;;;;5076974;28;20107;-44
2022/07/02 03:23:01;;;;;;;13.90;8.95;;;12.30;99.90;;;;;;5060760;28;20076;-44
2022/07/02 03:25:27;;;;;;;14.13;8.70;;;12.30;99.90;;;;;;5069032;28;20194;-44
2022/07/02 03:27:53;;;;;;;13.15;7.57;;;12.30;99.90;;;;;;5066912;28;20058;-43
2022/07/02 03:30:19;;;;;;;14.68;9.48;;;12.20;99.90;;;;;;5061176;28;20048;-43
2022/07/02 03:32:45;;;;;;;12.85;8.52;;;12.30;99.90;;;;;;5072113;28;20041;-43
2022/07/02 03:35:11;;;;;;;12.73;8.02;;;12.30;99.90;;;;;;5061871;28;20391;-43
2022/07/02 03:37:36;;;;;;;10.55;8.10;;;12.30;99.90;;;;;;5078012;28;20052;-44
2022/07/02 03:40:03;;;;;;;14.45;8.40;;;12.30;99.90;;;;;;5068079;28;20047;-45
2022/07/02 03:42:28;;;;;;;12.68;8.23;;;12.30;99.90;;;;;;5067186;28;20783;-46
2022/07/02 03:44:54;;;;;;;12.45;7.90;;;12.40;99.90;;;;;;5074805;28;20052;-48
2022/07/02 03:47:20;;;;;;;11.50;8.65;;;12.40;99.90;;;;;;5070076;28;20052;-44
2022/07/02 03:49:46;;;;;;;10.88;7.93;;;12.40;99.90;;;;;;5059937;28;20052;-44
2022/07/02 03:52:11;;;;;;;13.02;8.55;;;12.40;99.90;;;;;;5059786;28;20678;-45
2022/07/02 03:54:37;;;;;;;14.43;8.38;;;12.50;99.90;;;;;;5060407;28;20044;-44
2022/07/02 03:57:03;;;;;;;12.63;7.95;;;12.50;99.90;;;;;;5060134;28;20044;-44
2022/07/02 03:59:29;;;;;;;14.50;8.40;;;12.60;99.90;;;;;;5060431;28;20048;-45
2022/07/02 04:01:54;;;;;;;12.15;7.32;;;12.80;99.90;;;;;;5068548;28;20102;-44
2022/07/02 04:04:20;;;;;;;11.60;7.07;;;13.60;99.90;;;;;;5068865;28;20052;-44
2022/07/02 04:06:46;;;;;;;12.77;6.68;;;14.50;99.90;;;;;;5064717;28;20048;-43
2022/07/02 04:09:13;;;;;;;10.38;6.88;;;15.40;99.90;;;;;;5066064;28;20576;-43
2022/07/02 04:11:39;;;;;;;13.70;6.60;;;16.10;99.90;;;;;;5063446;28;20347;-45
2022/07/02 04:14:04;;;;;;;7.28;5.72;;;16.90;99.90;;;;;;5066975;28;20094;-45
2022/07/02 04:16:30;;;;;;;10.32;6.43;;;17.50;99.90;;;;;;5068269;28;20398;-45
2022/07/02 04:18:56;;;;;;;9.45;5.85;;;18.00;99.90;;;;;;5067265;28;20345;-45
2022/07/02 04:21:22;;;;;;;7.80;5.38;;;18.40;99.90;;;;;;5059453;28;20087;-44
2022/07/02 04:23:48;;;;;;;8.85;6.25;;;18.80;99.90;;;;;;5057648;28;20083;-46
2022/07/02 04:26:13;;;;;;;9.55;5.13;;;19.20;99.90;;;;;;5064433;28;20581;-44
2022/07/02 04:28:39;;;;;;;6.35;5.05;;;19.80;99.90;;;;;;5059772;28;20577;-44
2022/07/02 04:31:05;;;;;;;12.65;6.80;;;20.30;99.90;;;;;;5068790;28;20087;-44
2022/07/02 04:33:30;;;;;;;8.77;5.40;;;20.60;99.90;;;;;;5066142;28;20048;-45
2022/07/02 04:35:56;;;;;;;7.13;5.20;;;21.00;99.90;;;;;;5064254;28;20088;-44
2022/07/02 04:38:22;;;;;;;9.90;6.13;;;21.20;99.90;;;;;;5063406;28;20523;-45
2022/07/02 04:40:48;;;;;;;8.20;6.28;;;21.40;99.90;;;;;;5064146;28;20040;-45
2022/07/02 04:43:14;;;;;;;8.75;6.30;;;21.30;99.90;;;;;;5064112;28;20048;-45
2022/07/02 04:45:39;;;;;;;9.68;6.45;;;21.90;99.90;;;;;;5060505;28;20155;-45
2022/07/02 04:48:07;;;;;;;9.13;6.05;;;22.20;99.90;;;;;;5061666;28;20045;-45
2022/07/02 04:50:33;;;;;;;7.82;5.53;;;22.70;99.90;;;;;;5067563;28;20052;-44
2022/07/02 04:52:59;;;;;;;9.02;5.47;;;23.10;99.90;;;;;;5063479;28;20044;-44
2022/07/02 04:55:25;;;;;;;7.15;6.35;;;23.30;99.90;;;;;;5071851;28;20051;-50
2022/07/02 04:57:51;;;;;;;13.07;5.60;;;23.80;99.90;;;;;;5064220;28;20151;-51
2022/07/02 05:00:17;;;;;;;8.52;6.18;;;24.10;99.90;;;;;;5064856;28;20052;-46
2022/07/02 05:02:42;;;;;;;12.18;6.85;;;24.30;99.30;;;;;;5048376;28;20064;-46
2022/07/02 05:05:08;;;;;;;8.05;6.00;;;24.70;99.10;;;;;;5055481;28;20044;-45
2022/07/02 05:07:34;;;;;;;7.97;5.72;;;24.70;98.30;;;;;;5057240;28;20040;-45
2022/07/02 05:10:00;;;;;;;10.10;6.25;;;25.10;98.20;;;;;;5057358;28;20044;-45
2022/07/02 05:12:26;;;;;;;7.30;6.28;;;24.90;97.20;;;;;;5050743;28;20149;-44
2022/07/02 05:14:52;;;;;;;7.95;5.80;;;24.90;97.70;;;;;;5071376;28;20826;-45
2022/07/02 05:17:18;;;;;;;7.88;5.35;;;25.10;97.40;;;;;;5070103;28;20052;-45
2022/07/02 05:19:44;;;;;;;6.97;5.60;;;25.10;96.50;;;;;;5070854;28;20048;-45
2022/07/02 05:22:10;;;;;;;7.10;5.10;;;25.50;96.90;;;;;;5078790;28;20048;-46
2022/07/02 05:24:36;;;;;;;6.95;5.20;;;25.70;96.60;;;;;;5089684;28;20058;-46
2022/07/02 05:27:02;;;;;;;7.28;5.22;;;26.00;96.00;;;;;;5085805;28;20048;-46
2022/07/02 05:29:28;;;;;;;9.65;5.13;;;26.20;96.00;;;;;;5071340;28;20059;-45
2022/07/02 05:31:53;;;;;;;8.77;4.95;;;26.50;95.60;;;;;;5094583;28;20547;-47
2022/07/02 05:34:19;;;;;;;7.78;4.72;;;26.60;95.20;;;;;;5088260;28;20054;-46
2022/07/02 05:36:45;;;;;;;7.28;4.55;;;26.90;95.20;;;;;;5083966;28;20059;-45
2022/07/02 05:39:10;;;;;;;5.38;4.15;;;27.30;94.10;;;;;;5086944;28;20054;-46
2022/07/02 05:41:36;;;;;;;6.47;4.50;;;27.60;94.30;;;;;;5073150;28;20109;-43
2022/07/02 05:44:02;;;;;;;6.15;4.25;;;27.70;93.60;;;;;;5083459;28;20036;-43
2022/07/02 05:46:28;;;;;;;5.32;3.80;;;27.80;92.80;;;;;;5096447;28;20550;-44
2022/07/02 05:48:56;;;;;;;7.18;4.00;;;27.90;93.30;;;;;;5081902;28;20044;-45
2022/07/02 05:51:22;;;;;;;8.52;4.22;;;28.00;92.50;;;;;;5085329;28;20131;-44
2022/07/02 05:53:48;;;;;;;6.28;3.75;;;27.90;92.30;;;;;;5089600;28;20520;-44
2022/07/02 05:56:14;;;;;;;6.45;3.90;;;28.00;92.60;;;;;;5084279;28;20036;-44
2022/07/02 05:58:39;;;;;;;6.65;3.92;;;28.10;92.60;;;;;;5083414;28;20440;-45
2022/07/02 06:01:06;;;;;;;8.05;3.78;;;28.20;91.90;;;;;;5082752;28;20067;-44
2022/07/02 06:03:32;;;;;;;6.40;3.95;;;28.30;91.50;;;;;;5083466;28;20040;-43
2022/07/02 06:08:42;;;;;;;7.18;3.78;;;28.40;91.50;;;;;;5083564;28;20051;-44
2022/07/02 06:11:10;;;;;;;6.80;3.72;;;29.00;91.60;;;;;;5082451;28;20048;-44
2022/07/02 06:13:36;;;;;;;7.00;3.30;;;29.00;91.20;;;;;;5067759;28;20155;-46
2022/07/02 06:16:02;;;;;;;6.85;3.53;;;29.20;91.20;;;;;;5082808;28;20044;-44
2022/07/02 06:18:28;;;;;;;5.38;3.45;;;29.40;90.80;;;;;;5064483;28;20056;-50
2022/07/02 06:20:54;;;;;;;5.93;3.17;;;29.30;90.50;;;;;;5073531;28;20278;-45
2022/07/02 06:23:21;;;;;;;6.45;3.50;;;29.50;90.40;;;;;;5061670;28;20036;-44
2022/07/02 06:25:50;;;;;;;7.63;3.88;;;29.60;90.20;;;;;;5062157;28;20075;-45
2022/07/02 06:28:16;;;;;;;7.93;3.33;;;29.40;89.20;;;;;;5062127;28;20091;-45
2022/07/02 06:30:42;;;;;;;6.13;3.10;;;29.50;89.90;;;;;;5060466;28;20040;-44
2022/07/02 06:33:08;;;;;;;6.65;3.47;;;29.20;88.70;;;;;;5060998;28;20098;-44
2022/07/02 06:35:34;;;;;;;6.10;3.22;;;29.20;89.30;;;;;;5060919;28;20505;-43
2022/07/02 06:37:59;;;;;;;5.70;3.00;;;29.40;88.80;;;;;;5062091;28;20409;-43
2022/07/02 06:40:29;;;;;;;7.43;3.25;;;29.60;88.40;;;;;;5061005;28;20078;-45
2022/07/02 06:42:55;;;;;;;5.65;3.28;;;29.60;87.90;;;;;;5061363;28;20076;-44
2022/07/02 06:45:21;;;;;;;6.32;2.72;;;29.40;87.90;;;;;;5042902;28;20632;-44
2022/07/02 06:47:47;;;;;;;5.65;2.67;;;29.50;88.50;;;;;;5061566;28;20135;-44
2022/07/02 06:50:13;;;;;;;7.70;2.50;;;29.40;88.30;;;;;;5068441;28;20105;-43
2022/07/02 06:52:39;;;;;;;6.13;2.70;;;29.40;87.70;;;;;;5059588;28;20569;-45
2022/07/02 06:55:05;;;;;;;5.03;2.70;;;28.90;88.30;;;;;;5070521;28;20044;-46
2022/07/02 06:57:31;;;;;;;7.28;3.25;;;28.70;88.80;;;;;;5049398;28;20398;-45
2022/07/02 06:59:56;;;;;;;6.03;2.75;;;28.70;88.40;;;;;;5066238;28;20057;-44
2022/07/02 07:02:23;;;;;;;5.15;2.90;;;28.70;89.50;;;;;;5065135;28;20036;-45
2022/07/02 07:04:49;;;;;;;6.70;2.58;;;29.00;89.40;;;;;;5061066;28;20048;-43
2022/07/02 07:07:16;;;;;;;8.60;2.60;;;29.00;88.60;;;;;;5060939;28;20047;-45
2022/07/02 07:09:42;;;;;;;6.40;2.75;;;28.70;89.10;;;;;;5063424;28;20048;-43
2022/07/02 07:12:08;;;;;;;6.00;2.33;;;28.80;89.10;;;;;;5038349;28;20053;-44
2022/07/02 07:14:34;;;;;;;5.70;2.45;;;28.60;90.00;;;;;;5059248;28;20051;-43
2022/07/02 07:17:00;;;;;;;7.63;3.13;;;28.70;88.70;;;;;;5067833;28;20509;-44
2022/07/02 07:19:26;;;;;;;5.50;2.13;;;28.40;88.70;;;;;;5072337;28;20542;-46
2022/07/02 07:21:52;;;;;;;4.93;2.67;;;28.00;89.60;;;;;;5074852;28;20300;-45
2022/07/02 07:24:19;;;;;;;6.03;2.28;;;27.40;90.10;;;;;;5080294;28;20491;-45
2022/07/02 07:26:45;;;;;;;4.82;2.70;;;27.10;90.50;;;;;;5079593;28;20040;-44
2022/07/02 07:29:11;;;;;;;9.05;2.35;;;27.30;90.80;;;;;;5080567;28;20105;-44
2022/07/02 07:31:38;;;;;;;6.85;2.50;;;26.80;91.60;;;;;;5079690;28;20040;-45
2022/07/02 07:34:09;;;;;;;4.75;2.15;;;26.20;91.60;;;;;;5080140;28;21022;-44
2022/07/02 07:36:35;;;;;;;9.50;2.60;;;25.80;91.90;;;;;;5083274;28;20051;-44
2022/07/02 07:39:03;;;;;;;5.32;2.28;;;25.60;92.60;;;;;;5060353;28;20052;-45
2022/07/02 07:41:29;;;;;;;4.55;2.17;;;25.10;92.20;;;;;;5074134;28;20044;-47
2022/07/02 07:43:55;;;;;;;6.10;2.42;;;25.10;92.40;;;;;;5077113;28;20414;-44
2022/07/02 07:46:21;;;;;;;5.10;2.05;;;25.10;93.40;;;;;;5081475;28;20478;-44
2022/07/02 07:48:47;;;;;;;9.40;2.20;;;24.70;92.90;;;;;;5083436;28;20048;-46
2022/07/02 07:51:14;;;;;;;6.10;2.78;;;24.70;93.00;;;;;;5080310;28;20271;-45
2022/07/02 07:53:40;;;;;;;3.95;2.38;;;24.50;93.20;;;;;;5081102;28;20439;-46
2022/07/02 07:56:05;;;;;;;7.72;2.25;;;24.40;93.30;;;;;;5087343;28;20059;-47
2022/07/02 07:58:33;;;;;;;4.95;2.08;;;24.60;93.70;;;;;;5062478;28;20054;-45
2022/07/02 08:00:59;;;;;;;5.40;2.45;;;24.80;93.50;;;;;;5084253;28;20101;-47
2022/07/02 08:03:25;;;;;;;7.60;2.63;;;24.70;92.80;;;;;;5078770;28;20047;-46
2022/07/02 08:05:54;;;;;;;5.57;2.00;;;24.80;92.60;;;;;;5082586;28;20051;-48
2022/07/02 08:08:22;;;;;;;5.75;2.20;;;24.80;93.10;;;;;;5079818;28;20040;-46
2022/07/02 08:10:48;;;;;;;5.97;2.20;;;24.50;92.70;;;;;;5083608;28;20056;-44
2022/07/02 08:13:15;;;;;;;5.65;1.92;;;24.50;93.50;;;;;;5077848;28;20047;-46
2022/07/02 08:15:41;;;;;;;5.15;1.75;;;24.40;93.10;;;;;;5079005;28;20044;-46
2022/07/02 08:18:08;;;;;;;7.20;2.10;;;24.40;93.50;;;;;;5078013;28;20066;-49
2022/07/02 08:20:34;;;;;;;8.63;2.10;;;24.50;94.10;;;;;;5067464;28;20212;-45
2022/07/02 08:23:00;;;;;;;5.40;2.30;;;24.30;93.90;;;;;;5054737;28;20496;-48
2022/07/02 08:25:26;;;;;;;4.00;1.40;;;24.20;94.80;;;;;;5057703;28;20078;-45
2022/07/02 08:27:52;;;;;;;4.38;1.42;;;24.40;93.90;;;;;;5056365;28;20048;-51
2022/07/02 08:30:17;;;;;;;5.50;1.70;;;24.00;93.10;;;;;;5055210;28;20108;-46
2022/07/02 08:32:43;;;;;;;6.47;1.67;;;24.20;93.40;;;;;;5056234;28;20468;-47
2022/07/02 08:35:09;;;;;;;4.22;1.45;;;24.10;94.30;;;;;;5038781;28;20145;-46
2022/07/02 08:37:38;;;;;;;6.18;1.95;;;24.00;93.90;;;;;;5047330;28;20059;-47
2022/07/02 08:40:04;;;;;;;5.88;1.98;;;24.10;93.60;;;;;;5052762;28;20453;-47
2022/07/02 08:42:31;;;;;;;4.53;1.92;;;24.30;93.90;;;;;;5057451;28;20432;-50
2022/07/02 08:45:00;;;;;;;5.50;1.73;;;24.10;93.70;;;;;;5065414;28;20538;-49
2022/07/02 08:47:27;;;;;;;4.57;2.17;;;23.90;92.90;;;;;;5071479;28;20052;-46
2022/07/02 08:49:54;;;;;;;3.63;1.30;;;23.80;93.40;;;;;;5057255;28;20136;-44
2022/07/02 08:52:23;;;;;;;3.15;1.38;;;23.80;93.80;;;;;;5067639;28;20078;-47
2022/07/02 08:54:49;;;;;;;3.42;1.30;;;24.00;93.10;;;;;;5073015;28;20496;-47
2022/07/02 08:57:16;;;;;;;3.88;1.20;;;23.80;92.20;;;;;;5072021;28;20054;-46
2022/07/02 08:59:42;;;;;;;2.80;1.13;;;23.90;92.70;;;;;;5065906;28;20465;-46
2022/07/02 09:02:13;;;;;;;3.78;1.48;;;24.00;93.60;;;;;;5066146;28;20393;-46
2022/07/02 09:04:46;;;;;;;1.70;1.20;;;24.20;93.40;;;;;;5064513;28;20056;-48
2022/07/02 09:07:17;;;;;;;5.15;1.35;;;24.10;92.60;;;;;;5064499;28;20127;-47
2022/07/02 09:09:48;;;;;;;4.10;0.90;;;24.10;91.90;;;;;;5060816;28;20062;-47
2022/07/02 09:12:14;;;;;;;2.83;1.10;;;24.10;92.90;;;;;;5053990;28;20067;-45
2022/07/02 09:14:45;;;;;;;3.15;1.45;;;24.20;92.70;;;;;;5070646;28;20506;-49
2022/07/02 09:17:12;;;;;;;3.33;1.10;;;24.10;91.10;;;;;;5070807;28;20044;-48
2022/07/02 09:19:39;;;;;;;3.20;1.20;;;24.20;91.80;;;;;;5045194;28;20771;-46
2022/07/02 09:22:06;;;;;;;4.25;1.15;;;24.40;91.50;;;;;;5066393;28;20111;-47
2022/07/02 09:24:33;;;;;;;3.47;1.13;;;24.30;91.60;;;;;;5065381;28;20470;-45
2022/07/02 09:27:04;;;;;;;2.95;1.08;;;24.30;90.80;;;;;;5067877;28;20140;-47
2022/07/02 09:29:47;;;;;;;4.90;1.48;;;24.30;90.70;;;;;;5072561;28;20388;-48
2022/07/02 09:32:13;;;;;;;2.83;1.40;;;24.30;90.80;;;;;;5064326;28;20076;-45
2022/07/02 09:34:54;;;;;;;2.55;1.30;;;24.30;90.40;;;;;;5072944;28;20051;-50
2022/07/02 09:37:24;;;;;;;2.42;1.48;;;24.30;90.50;;;;;;5036733;28;20536;-46
2022/07/02 09:39:52;;;;;;;4.13;1.30;;;24.30;92.10;;;;;;5068833;28;20178;-50
2022/07/02 09:42:27;;;;;;;3.38;1.42;;;24.40;91.40;;;;;;5060813;28;20510;-47
2022/07/02 09:44:53;;;;;;;2.58;1.15;;;24.50;91.70;;;;;;5061791;28;20097;-47
2022/07/02 09:47:40;;;;;;;4.15;1.08;;;24.70;91.60;;;;;;5049510;28;20056;-46
2022/07/02 09:50:11;;;;;;;2.42;1.00;;;24.50;88.10;;;;;;5052313;28;20052;-46
2022/07/02 09:52:53;;;;;;;2.67;1.00;;;24.70;91.70;;;;;;5082576;28;20125;-47
2022/07/02 09:55:40;;;;;;;2.35;1.00;;;24.70;90.80;;;;;;5053056;28;20047;-49
2022/07/02 09:58:06;;;;;;;2.53;1.42;;;24.80;90.50;;;;;;5077314;28;20424;-47
2022/07/02 10:00:41;;;;;;;2.40;0.73;;;24.90;89.40;;;;;;5081085;28;20044;-46
2022/07/02 10:03:07;;;;;;;4.25;1.17;;;25.10;89.20;;;;;;5057255;28;20125;-49
2022/07/02 10:05:33;;;;;;;3.70;0.90;;;25.20;91.40;;;;;;5081378;28;20036;-45
2022/07/02 10:08:01;;;;;;;3.03;0.90;;;25.50;90.00;;;;;;5080283;28;20040;-48
2022/07/02 10:10:38;;;;;;;2.65;1.00;;;25.60;88.10;;;;;;5075011;28;21608;-46
2022/07/02 10:13:09;;;;;;;3.78;1.23;;;25.70;89.70;;;;;;5074832;28;20524;-47
2022/07/02 10:15:38;;;;;;;2.40;0.90;;;25.60;90.50;;;;;;5084051;28;20048;-46
2022/07/02 10:18:05;;;;;;;1.55;0.82;;;25.40;87.50;;;;;;5084817;28;20134;-46
2022/07/02 10:20:33;;;;;;;3.63;0.95;;;25.40;88.10;;;;;;5085963;28;20040;-47
2022/07/02 10:23:04;;;;;;;2.20;0.90;;;25.30;88.00;;;;;;5087026;28;20052;-46
2022/07/02 10:25:32;;;;;;;1.92;0.95;;;25.40;89.10;;;;;;5086413;28;20477;-46
2022/07/02 10:27:58;;;;;;;2.28;0.88;;;25.40;88.40;;;;;;5083425;28;20052;-48
2022/07/02 10:30:34;;;;;;;1.95;0.90;;;25.30;89.00;;;;;;5095164;28;20052;-48
2022/07/02 10:33:23;;;;;;;1.75;0.77;;;25.10;89.60;;;;;;5086865;28;20054;-47
2022/07/02 10:35:50;;;;;;;3.28;1.00;;;25.10;90.60;;;;;;5092917;28;20389;-53
2022/07/02 10:38:30;;;;;;;2.15;0.90;;;24.90;89.10;;;;;;5082512;28;20542;-46
2022/07/02 10:40:56;;;;;;;2.55;0.90;;;24.50;86.90;;;;;;5096304;28;20101;-48
2022/07/02 10:43:22;;;;;;;2.08;0.90;;;24.30;88.60;;;;;;5083306;28;20127;-46
2022/07/02 10:45:48;;;;;;;3.80;1.45;;;24.30;89.80;;;;;;5081759;28;20040;-47
2022/07/02 10:48:14;;;;;;;3.42;0.90;;;24.10;88.90;;;;;;5082184;28;20440;-48
2022/07/02 10:50:45;;;;;;;1.15;0.85;;;24.00;90.60;;;;;;5074851;28;22506;-47
2022/07/02 10:53:17;;;;;;;2.65;1.42;;;24.40;90.70;;;;;;5070174;28;20506;-49
2022/07/02 10:56:02;;;;;;;2.92;0.90;;;24.40;90.60;;;;;;5066328;28;20052;-46
2022/07/02 10:58:31;;;;;;;3.95;1.00;;;24.50;88.50;;;;;;5063615;28;20107;-47
2022/07/02 11:01:21;;;;;;;2.53;1.10;;;24.40;88.30;;;;;;5068115;28;20044;-47
2022/07/02 11:03:59;;;;;;;2.55;0.90;;;24.70;89.30;;;;;;5059876;28;20056;-47
2022/07/02 11:06:25;;;;;;;3.60;1.05;;;24.70;87.50;;;;;;5042629;28;20095;-46
2022/07/02 11:08:54;;;;;;;2.22;1.15;;;24.40;88.40;;;;;;5059661;28;20128;-46
2022/07/02 11:11:22;;;;;;;2.10;0.95;;;24.50;90.60;;;;;;5061000;28;20541;-45
2022/07/02 11:14:06;;;;;;;2.10;1.02;;;24.80;90.60;;;;;;5057728;28;20127;-46
2022/07/02 11:16:41;;;;;;;3.70;0.93;;;24.80;91.00;;;;;;5065696;28;20051;-48
2022/07/02 11:19:20;;;;;;;1.83;0.88;;;25.20;90.70;;;;;;5067492;28;20488;-47
2022/07/02 11:21:47;;;;;;;2.40;1.10;;;24.90;87.80;;;;;;5064323;28;20511;-46
2022/07/02 11:24:18;;;;;;;1.27;0.90;;;24.80;90.00;;;;;;5065259;28;20430;-47
2022/07/02 11:26:45;;;;;;;1.75;0.88;;;25.10;90.10;;;;;;5065661;28;20487;-46
2022/07/02 11:29:11;;;;;;;3.58;1.35;;;25.10;87.70;;;;;;5046293;28;20486;-47
2022/07/02 11:31:39;;;;;;;2.50;0.90;;;25.00;86.90;;;;;;5061002;28;20151;-46
2022/07/02 11:34:05;;;;;;;1.20;0.90;;;24.90;88.40;;;;;;5060882;28;20558;-45
2022/07/02 11:36:31;;;;;;;3.25;1.00;;;24.80;87.30;;;;;;5060657;28;20052;-46
2022/07/02 11:38:57;;;;;;;3.53;0.70;;;24.70;89.30;;;;;;5060607;28;20075;-48
2022/07/02 11:41:34;;;;;;;3.17;1.15;;;24.70;88.20;;;;;;5060390;28;20593;-45
2022/07/02 11:44:11;;;;;;;2.03;0.80;;;24.50;87.10;;;;;;5060780;28;20123;-45
2022/07/02 11:46:36;;;;;;;1.88;0.82;;;24.60;87.60;;;;;;5051758;28;20043;-46
2022/07/02 11:49:12;;;;;;;2.00;1.00;;;24.60;89.80;;;;;;5067332;28;20048;-46
2022/07/02 11:51:38;;;;;;;3.70;1.38;;;24.60;88.90;;;;;;5071153;28;20410;-46
2022/07/02 11:54:04;;;;;;;4.68;0.90;;;24.50;90.40;;;;;;5068473;28;20449;-47
2022/07/02 11:56:31;;;;;;;1.30;0.80;;;24.50;90.30;;;;;;5080456;28;20047;-46
2022/07/02 11:59:10;;;;;;;3.30;0.93;;;24.70;91.30;;;;;;5077522;28;20067;-48
2022/07/02 12:01:38;;;;;;;5.47;1.05;;;25.00;90.70;;;;;;5066850;28;20059;-46
2022/07/02 12:04:05;;;;;;;2.42;0.90;;;25.10;91.00;;;;;;5049561;28;20102;-53
2022/07/02 12:06:34;;;;;;;3.40;1.00;;;25.00;88.60;;;;;;5080732;28;20051;-47
2022/07/02 12:09:02;;;;;;;2.00;1.10;;;25.00;89.70;;;;;;5067112;28;20127;-49
2022/07/02 12:11:28;;;;;;;1.58;0.77;;;25.00;88.80;;;;;;5071756;28;20048;-46
2022/07/02 12:13:55;;;;;;;1.67;0.95;;;25.10;90.60;;;;;;5070318;28;20116;-49
2022/07/02 12:16:23;;;;;;;3.35;1.10;;;25.30;90.50;;;;;;5078342;28;20052;-50
2022/07/02 12:19:11;;;;;;;1.88;1.00;;;25.50;90.30;;;;;;5079456;28;20147;-46
2022/07/02 12:21:44;;;;;;;2.58;1.35;;;25.70;90.90;;;;;;5063365;28;20052;-46
2022/07/02 12:24:24;;;;;;;;;;;25.60;88.80;;;;;;5073669;28;20041;-48
2022/07/02 12:27:04;;;;;;;1.73;0.85;;;25.50;90.60;;;;;;5076597;28;19935;-47
2022/07/02 12:32:28;;;;;;;5.10;1.08;;;25.30;88.10;;;;;;5075423;28;20057;-47
2022/07/02 12:35:02;;;;;;;3.05;1.20;;;25.30;87.50;;;;;;5063429;28;20176;-46
2022/07/02 12:37:27;;;;;;;2.75;0.73;;;25.20;89.90;;;;;;5076956;28;20105;-47
2022/07/02 12:40:07;;;;;;;2.75;1.10;;;25.10;90.00;;;;;;5076528;28;20051;-44
2022/07/02 12:42:45;;;;;;;2.53;1.10;;;25.00;90.20;;;;;;5082990;28;20048;-47
2022/07/02 12:45:20;;;;;;;2.33;0.80;;;25.00;90.20;;;;;;5055490;28;20442;-46
2022/07/02 12:47:57;;;;;;;1.42;0.80;;;25.10;90.20;;;;;;5079011;28;20044;-45
2022/07/02 12:50:23;;;;;;;4.20;1.58;;;25.30;91.30;;;;;;5077766;28;20048;-47
2022/07/02 12:52:52;;;;;;;2.22;0.95;;;25.30;89.80;;;;;;5084204;28;20044;-47
2022/07/02 12:55:29;;;;;;;3.28;1.30;;;25.60;90.20;;;;;;5071795;28;20458;-45
2022/07/02 12:57:56;;;;;;;4.05;1.02;;;25.50;88.90;;;;;;5082527;28;20559;-46